createdAt,value
2017-08-13T00:00:29.014Z,8.93
2017-08-13T00:02:55.162Z,11.30
2017-08-13T00:05:21.320Z,11.83
2017-08-13T00:07:47.497Z,8.43
2017-08-13T00:10:13.655Z,12.10
2017-08-13T00:12:39.835Z,15.63
2017-08-13T00:15:06.392Z,12.00
2017-08-13T00:17:32.555Z,7.00
2017-08-13T00:19:58.735Z,6.60
2017-08-13T00:22:24.918Z,6.03
2017-08-13T00:24:51.123Z,7.80
2017-08-13T00:27:17.316Z,9.70
2017-08-13T00:29:43.479Z,7.47
2017-08-13T00:32:09.638Z,9.10
2017-08-13T00:34:35.786Z,6.90
2017-08-13T00:37:02.710Z,5.77
2017-08-13T00:39:29.670Z,6.17
2017-08-13T00:41:56.621Z,6.70
2017-08-13T00:44:23.529Z,6.83
2017-08-13T00:46:49.756Z,9.80
2017-08-13T00:49:15.974Z,7.90
2017-08-13T00:51:42.158Z,7.13
2017-08-13T00:54:09.072Z,6.93
2017-08-13T00:56:35.272Z,12.60
2017-08-13T00:59:01.435Z,6.53
2017-08-13T01:01:27.618Z,7.70
2017-08-13T01:03:53.803Z,10.33
2017-08-13T01:06:20.754Z,9.73
2017-08-13T01:08:46.930Z,9.03
2017-08-13T01:11:13.093Z,9.03
2017-08-13T01:13:39.296Z,9.53
2017-08-13T01:16:05.502Z,8.73
2017-08-13T01:18:31.677Z,7.87
2017-08-13T01:20:57.869Z,6.43
2017-08-13T01:23:24.079Z,7.07
2017-08-13T01:25:50.240Z,6.60
2017-08-13T01:28:16.397Z,10.87
2017-08-13T01:30:42.571Z,9.90
2017-08-13T01:33:08.734Z,8.57
2017-08-13T01:35:34.918Z,8.70
2017-08-13T01:38:01.083Z,6.63
2017-08-13T01:40:27.293Z,9.07
2017-08-13T01:42:53.422Z,12.63
2017-08-13T01:45:19.603Z,8.50
2017-08-13T01:47:46.485Z,10.27
2017-08-13T01:50:12.670Z,8.53
2017-08-13T01:52:39.568Z,9.80
2017-08-13T01:55:05.698Z,10.90
2017-08-13T01:57:31.854Z,10.67
2017-08-13T01:59:58.014Z,9.60
2017-08-13T02:02:24.175Z,9.00
2017-08-13T02:04:50.311Z,8.63
2017-08-13T02:07:16.608Z,7.30
2017-08-13T02:09:43.527Z,9.23
2017-08-13T02:12:10.412Z,8.83
2017-08-13T02:14:36.551Z,9.00
2017-08-13T02:17:02.721Z,12.87
2017-08-13T02:19:29.599Z,8.67
2017-08-13T02:21:55.799Z,10.60
2017-08-13T02:24:22.728Z,9.93
2017-08-13T02:26:48.921Z,7.00
2017-08-13T02:29:15.079Z,9.97
2017-08-13T02:31:41.268Z,8.53
2017-08-13T02:34:07.399Z,9.90
2017-08-13T02:36:33.567Z,7.97
2017-08-13T02:38:59.709Z,11.50
2017-08-13T02:41:26.603Z,8.03
2017-08-13T02:43:52.757Z,6.70
2017-08-13T02:46:18.957Z,7.20
2017-08-13T02:48:45.081Z,10.00
2017-08-13T02:51:11.656Z,15.70
2017-08-13T02:53:39.316Z,8.37
2017-08-13T02:56:05.474Z,7.83
2017-08-13T02:58:32.406Z,9.60
2017-08-13T03:00:59.302Z,6.20
2017-08-13T03:03:25.510Z,6.07
2017-08-13T03:05:51.656Z,8.23
2017-08-13T03:08:17.826Z,13.77
2017-08-13T03:10:43.990Z,8.73
2017-08-13T03:13:10.149Z,11.83
2017-08-13T03:15:36.294Z,13.33
2017-08-13T03:18:02.462Z,8.80
2017-08-13T03:20:28.626Z,7.97
2017-08-13T03:22:54.830Z,8.10
2017-08-13T03:25:21.039Z,7.83
2017-08-13T03:27:47.932Z,6.73
2017-08-13T03:30:14.108Z,8.87
2017-08-13T03:32:41.762Z,8.07
2017-08-13T03:35:08.669Z,12.30
2017-08-13T03:37:34.805Z,5.63
2017-08-13T03:40:00.975Z,10.17
2017-08-13T03:42:27.859Z,8.13
2017-08-13T03:44:54.038Z,8.40
2017-08-13T03:47:20.922Z,6.33
2017-08-13T03:49:47.082Z,7.20
2017-08-13T03:52:13.293Z,7.87
2017-08-13T03:54:39.505Z,6.27
2017-08-13T03:57:05.634Z,8.73
2017-08-13T03:59:31.802Z,7.63
2017-08-13T04:01:57.953Z,8.63
2017-08-13T04:04:24.874Z,6.43
2017-08-13T04:06:51.036Z,7.80
2017-08-13T04:09:17.930Z,8.27
2017-08-13T04:11:44.091Z,7.20
2017-08-13T04:14:11.016Z,8.73
2017-08-13T04:16:37.166Z,7.77
2017-08-13T04:19:04.097Z,7.30
2017-08-13T04:21:30.394Z,6.80
2017-08-13T04:23:56.542Z,6.27
2017-08-13T04:26:22.689Z,6.93
2017-08-13T04:28:48.874Z,9.23
2017-08-13T04:31:15.027Z,7.60
2017-08-13T04:33:41.214Z,10.10
2017-08-13T04:36:07.367Z,7.87
2017-08-13T04:38:33.550Z,8.93
2017-08-13T04:40:59.682Z,7.60
2017-08-13T04:43:25.825Z,9.67
2017-08-13T04:45:52.006Z,10.00
2017-08-13T04:48:18.133Z,7.60
2017-08-13T04:50:44.352Z,11.57
2017-08-13T04:53:10.482Z,8.27
2017-08-13T04:55:36.624Z,8.43
2017-08-13T04:58:03.542Z,8.07
2017-08-13T05:00:29.712Z,8.00
2017-08-13T05:02:55.892Z,8.83
2017-08-13T05:05:22.056Z,11.13
2017-08-13T05:07:48.225Z,6.70
2017-08-13T05:10:14.436Z,7.43
2017-08-13T05:12:40.594Z,8.10
2017-08-13T05:15:07.530Z,9.70
2017-08-13T05:17:34.433Z,13.97
2017-08-13T05:20:01.310Z,6.90
2017-08-13T05:22:27.814Z,9.57
2017-08-13T05:24:54.718Z,10.90
2017-08-13T05:27:20.916Z,11.00
2017-08-13T05:29:47.866Z,10.10
2017-08-13T05:32:14.029Z,7.50
2017-08-13T05:34:40.174Z,8.60
2017-08-13T05:37:07.311Z,11.33
2017-08-13T05:39:33.488Z,6.60
2017-08-13T05:41:59.689Z,9.27
2017-08-13T05:44:26.625Z,10.00
2017-08-13T05:46:54.275Z,7.80
2017-08-13T05:49:20.527Z,9.80
2017-08-13T05:51:47.439Z,9.20
2017-08-13T05:54:13.631Z,9.87
2017-08-13T05:56:39.843Z,7.17
2017-08-13T05:59:06.745Z,6.87
2017-08-13T06:01:32.918Z,7.33
2017-08-13T06:03:59.121Z,13.50
2017-08-13T06:06:25.309Z,17.13
2017-08-13T06:08:51.457Z,10.60
2017-08-13T06:11:17.650Z,18.03
2017-08-13T06:13:43.839Z,8.07
2017-08-13T06:16:10.765Z,8.37
2017-08-13T06:18:37.006Z,10.77
2017-08-13T06:21:03.187Z,10.00
2017-08-13T06:23:29.408Z,10.07
2017-08-13T06:25:55.574Z,13.10
2017-08-13T06:28:21.798Z,8.23
2017-08-13T06:30:47.964Z,8.47
2017-08-13T06:33:15.026Z,12.10
2017-08-13T06:35:41.203Z,6.60
2017-08-13T06:38:07.363Z,8.60
2017-08-13T06:40:34.284Z,6.63
2017-08-13T06:43:00.454Z,8.03
2017-08-13T06:45:26.606Z,11.73
2017-08-13T06:47:52.774Z,15.97
2017-08-13T06:50:18.968Z,7.87
2017-08-13T06:52:45.153Z,9.03
2017-08-13T06:55:12.022Z,10.33
2017-08-13T06:57:38.209Z,8.37
2017-08-13T07:00:04.357Z,9.80
2017-08-13T07:02:31.305Z,6.27
2017-08-13T07:04:58.219Z,9.40
2017-08-13T07:07:25.750Z,6.83
2017-08-13T07:09:51.969Z,6.53
2017-08-13T07:12:18.153Z,6.60
2017-08-13T07:14:44.336Z,7.50
2017-08-13T07:17:11.272Z,7.90
2017-08-13T07:19:37.450Z,5.33
2017-08-13T07:22:04.338Z,5.63
2017-08-13T07:24:30.517Z,4.07
2017-08-13T07:26:57.433Z,4.00
2017-08-13T07:29:23.688Z,5.67
2017-08-13T07:31:49.883Z,6.57
2017-08-13T07:34:16.062Z,4.13
2017-08-13T07:36:43.705Z,3.37
2017-08-13T07:39:09.878Z,6.80
2017-08-13T07:41:36.037Z,3.07
2017-08-13T07:44:02.209Z,2.70
2017-08-13T07:46:29.136Z,2.80
2017-08-13T07:48:55.309Z,4.53
2017-08-13T07:51:21.547Z,2.90
2017-08-13T07:53:47.703Z,2.50
2017-08-13T07:56:13.861Z,2.23
2017-08-13T07:58:40.786Z,2.30
2017-08-13T08:01:06.941Z,1.30
2017-08-13T08:03:33.857Z,3.70
2017-08-13T08:06:00.043Z,1.10
2017-08-13T08:08:26.178Z,1.00
2017-08-13T08:10:52.335Z,2.10
2017-08-13T08:13:18.529Z,2.17
2017-08-13T08:15:44.714Z,1.27
2017-08-13T08:18:11.634Z,1.03
2017-08-13T08:20:37.813Z,1.10
2017-08-13T08:23:03.975Z,13.20
2017-08-13T08:25:30.177Z,1.13
2017-08-13T08:27:56.362Z,1.77
2017-08-13T08:30:22.561Z,0.90
2017-08-13T08:32:48.767Z,2.90
2017-08-13T08:35:14.975Z,0.80
2017-08-13T08:37:41.115Z,1.40
2017-08-13T08:40:07.326Z,2.80
2017-08-13T08:42:34.235Z,1.53
2017-08-13T08:45:00.411Z,1.90
2017-08-13T08:47:26.626Z,1.17
2017-08-13T08:49:53.535Z,1.37
2017-08-13T08:52:19.761Z,2.17
2017-08-13T08:54:45.914Z,1.53
2017-08-13T08:57:12.865Z,1.40
2017-08-13T08:59:39.819Z,1.50
2017-08-13T09:02:06.735Z,2.30
2017-08-13T09:04:32.882Z,1.50
2017-08-13T09:06:59.136Z,1.00
2017-08-13T09:09:25.329Z,2.13
2017-08-13T09:11:51.575Z,1.30
2017-08-13T09:14:19.454Z,2.13
2017-08-13T09:16:45.629Z,1.47
2017-08-13T09:19:11.812Z,1.33
2017-08-13T09:21:40.131Z,1.20
2017-08-13T09:24:06.342Z,11.93
2017-08-13T09:26:32.514Z,7.40
2017-08-13T09:28:59.643Z,6.90
2017-08-13T09:31:26.429Z,3.13
2017-08-13T09:33:53.310Z,1.33
2017-08-13T09:36:19.925Z,2.67
2017-08-13T09:38:46.067Z,1.43
2017-08-13T09:41:15.765Z,0.90
2017-08-13T09:43:41.930Z,1.17
2017-08-13T09:46:08.111Z,1.73
2017-08-13T09:48:34.359Z,1.27
2017-08-13T09:51:00.515Z,5.80
2017-08-13T09:53:27.118Z,2.73
2017-08-13T09:55:53.283Z,1.77
2017-08-13T09:58:19.551Z,4.63
2017-08-13T10:00:46.475Z,1.57
2017-08-13T10:03:12.790Z,3.30
2017-08-13T10:05:38.995Z,7.43
2017-08-13T10:08:05.195Z,3.80
2017-08-13T10:10:31.706Z,5.63
2017-08-13T10:12:57.893Z,3.00
2017-08-13T10:15:24.082Z,1.30
2017-08-13T10:17:51.005Z,1.20
2017-08-13T10:20:17.639Z,3.27
2017-08-13T10:22:44.665Z,2.17
2017-08-13T10:25:10.953Z,1.30
2017-08-13T10:27:37.142Z,1.70
2017-08-13T10:30:04.183Z,1.47
2017-08-13T10:32:30.406Z,1.67
2017-08-13T10:34:56.622Z,2.60
2017-08-13T10:37:22.822Z,1.20
2017-08-13T10:39:49.035Z,1.40
2017-08-13T10:42:15.931Z,2.10
2017-08-13T10:44:42.187Z,2.20
2017-08-13T10:47:08.347Z,1.90
2017-08-13T10:49:34.599Z,1.53
2017-08-13T10:52:00.802Z,2.97
2017-08-13T10:54:26.996Z,2.77
2017-08-13T10:56:53.182Z,4.43
2017-08-13T10:59:19.373Z,1.50
2017-08-13T11:01:46.461Z,1.43
2017-08-13T11:04:12.663Z,3.17
2017-08-13T11:06:38.830Z,1.23
2017-08-13T11:09:05.115Z,2.20
2017-08-13T11:11:32.030Z,5.83
2017-08-13T11:14:00.686Z,1.43
2017-08-13T11:16:27.287Z,2.37
2017-08-13T11:18:53.474Z,1.80
2017-08-13T11:21:19.630Z,2.87
2017-08-13T11:23:46.534Z,2.50
2017-08-13T11:26:14.593Z,2.07
2017-08-13T11:28:40.769Z,1.60
2017-08-13T11:31:07.764Z,2.77
2017-08-13T11:33:33.999Z,5.37
2017-08-13T11:36:00.411Z,4.93
2017-08-13T11:38:26.651Z,4.30
2017-08-13T11:40:52.855Z,5.50
2017-08-13T11:43:19.133Z,4.97
2017-08-13T11:45:47.028Z,4.57
2017-08-13T11:48:13.239Z,10.07
2017-08-13T11:50:39.441Z,9.40
2017-08-13T11:53:05.614Z,9.17
2017-08-13T11:55:31.798Z,6.33
2017-08-13T11:57:58.047Z,5.00
2017-08-13T12:00:24.273Z,3.30
2017-08-13T12:02:50.447Z,2.50
2017-08-13T12:05:17.358Z,2.60
2017-08-13T12:07:43.538Z,2.10
2017-08-13T12:10:10.673Z,3.63
2017-08-13T12:12:37.632Z,2.27
2017-08-13T12:15:03.807Z,3.00
2017-08-13T12:17:30.010Z,1.60
2017-08-13T12:19:56.207Z,3.20
2017-08-13T12:22:22.372Z,1.43
2017-08-13T12:24:48.595Z,2.50
2017-08-13T12:27:14.825Z,2.50
2017-08-13T12:29:41.048Z,1.73
2017-08-13T12:32:07.350Z,4.90
2017-08-13T12:34:33.587Z,2.60
2017-08-13T12:36:59.804Z,2.53
2017-08-13T12:39:26.775Z,8.00
2017-08-13T12:41:53.973Z,2.33
2017-08-13T12:44:20.415Z,3.37
2017-08-13T12:46:46.626Z,1.60
2017-08-13T12:49:12.850Z,3.40
2017-08-13T12:51:39.015Z,3.27
2017-08-13T12:54:06.103Z,3.80
2017-08-13T12:56:32.296Z,5.43
2017-08-13T12:58:59.230Z,1.30
2017-08-13T13:01:25.795Z,1.93
2017-08-13T13:03:54.464Z,2.30
2017-08-13T13:06:20.683Z,5.63
2017-08-13T13:08:47.637Z,1.80
2017-08-13T13:11:14.592Z,2.20
2017-08-13T13:13:40.798Z,3.43
2017-08-13T13:16:06.963Z,5.27
2017-08-13T13:18:33.178Z,2.47
2017-08-13T13:20:59.370Z,1.93
2017-08-13T13:23:26.111Z,3.10
2017-08-13T13:25:52.737Z,3.20
2017-08-13T13:28:18.898Z,1.47
2017-08-13T13:30:46.265Z,4.43
2017-08-13T13:33:13.187Z,5.80
2017-08-13T13:35:40.138Z,1.70
2017-08-13T13:38:06.305Z,3.03
2017-08-13T13:40:32.491Z,4.57
2017-08-13T13:42:58.683Z,1.57
2017-08-13T13:45:25.544Z,1.13
2017-08-13T13:47:51.745Z,2.57
2017-08-13T13:50:17.950Z,2.10
2017-08-13T13:52:44.138Z,2.13
2017-08-13T13:55:10.339Z,2.20
2017-08-13T13:57:36.571Z,1.40
2017-08-13T14:00:02.781Z,1.27
2017-08-13T14:02:28.978Z,2.20
2017-08-13T14:04:55.912Z,1.93
2017-08-13T14:07:23.018Z,1.20
2017-08-13T14:09:49.257Z,1.60
2017-08-13T14:12:15.436Z,2.77
2017-08-13T14:14:42.487Z,0.80
2017-08-13T14:17:09.438Z,2.13
2017-08-13T14:19:35.611Z,3.30
2017-08-13T14:22:01.827Z,0.90
2017-08-13T14:24:28.044Z,2.60
2017-08-13T14:26:54.223Z,1.60
2017-08-13T14:29:20.435Z,2.07
2017-08-13T14:31:46.602Z,1.97
2017-08-13T14:34:13.542Z,1.63
2017-08-13T14:36:40.488Z,3.83
2017-08-13T14:39:07.463Z,5.00
2017-08-13T14:41:33.635Z,1.80
2017-08-13T14:43:59.823Z,2.23
2017-08-13T14:46:26.049Z,1.67
2017-08-13T14:48:52.280Z,1.10
2017-08-13T14:51:18.527Z,0.90
2017-08-13T14:53:45.314Z,1.10
2017-08-13T14:56:12.242Z,1.50
2017-08-13T14:58:38.466Z,3.63
2017-08-13T15:01:04.653Z,1.50
2017-08-13T15:03:30.895Z,1.20
2017-08-13T15:05:57.142Z,1.20
2017-08-13T15:08:24.298Z,1.27
2017-08-13T15:10:50.513Z,1.13
2017-08-13T15:13:16.698Z,1.00
2017-08-13T15:15:42.869Z,2.33
2017-08-13T15:18:09.020Z,2.30
2017-08-13T15:20:35.174Z,1.27
2017-08-13T15:23:02.123Z,3.07
2017-08-13T15:25:29.851Z,2.47
2017-08-13T15:27:56.793Z,2.23
2017-08-13T15:30:23.242Z,7.43
2017-08-13T15:32:49.382Z,3.30
2017-08-13T15:35:16.355Z,6.30
2017-08-13T15:37:42.486Z,4.63
2017-08-13T15:40:09.622Z,2.27
2017-08-13T15:42:35.783Z,3.13
2017-08-13T15:45:01.965Z,2.30
2017-08-13T15:47:28.891Z,2.40
2017-08-13T15:49:55.073Z,0.80
2017-08-13T15:52:21.244Z,2.40
2017-08-13T15:54:47.379Z,1.73
2017-08-13T15:57:13.572Z,6.80
2017-08-13T15:59:39.842Z,1.30
2017-08-13T16:02:05.973Z,1.87
2017-08-13T16:04:32.906Z,3.27
2017-08-13T16:06:59.114Z,1.53
2017-08-13T16:09:25.313Z,1.47
2017-08-13T16:11:51.485Z,0.80
2017-08-13T16:14:18.855Z,1.00
2017-08-13T16:16:45.124Z,1.00
2017-08-13T16:19:11.308Z,1.70
2017-08-13T16:21:37.498Z,2.20
2017-08-13T16:24:04.147Z,1.00
2017-08-13T16:26:30.365Z,1.17
2017-08-13T16:28:56.542Z,1.67
2017-08-13T16:31:24.455Z,2.00
2017-08-13T16:33:50.656Z,1.13
2017-08-13T16:36:16.782Z,2.07
2017-08-13T16:38:42.960Z,1.50
2017-08-13T16:41:09.149Z,2.00
2017-08-13T16:43:35.434Z,5.10
2017-08-13T16:46:03.100Z,2.37
2017-08-13T16:48:29.278Z,4.10
2017-08-13T16:50:55.561Z,2.53
2017-08-13T16:53:21.869Z,0.90
2017-08-13T16:55:48.081Z,2.20
2017-08-13T16:58:14.254Z,1.63
2017-08-13T17:00:41.194Z,1.90
2017-08-13T17:03:07.351Z,1.70
2017-08-13T17:05:33.535Z,3.80
2017-08-13T17:07:59.743Z,4.87
2017-08-13T17:10:25.930Z,2.20
2017-08-13T17:12:52.983Z,2.93
2017-08-13T17:15:19.196Z,3.50
2017-08-13T17:17:46.831Z,1.50
2017-08-13T17:20:13.031Z,2.67
2017-08-13T17:22:39.198Z,2.67
2017-08-13T17:25:05.371Z,2.40
2017-08-13T17:27:31.549Z,6.17
2017-08-13T17:29:57.723Z,3.70
2017-08-13T17:32:23.882Z,2.80
2017-08-13T17:34:50.112Z,10.00
2017-08-13T17:37:16.283Z,3.80
2017-08-13T17:39:43.201Z,3.30
2017-08-13T17:42:09.399Z,4.37
2017-08-13T17:44:35.572Z,11.60
2017-08-13T17:47:01.758Z,4.43
2017-08-13T17:49:27.937Z,4.73
2017-08-13T17:51:54.834Z,5.60
2017-08-13T17:54:20.990Z,5.43
2017-08-13T17:56:47.202Z,5.23
2017-08-13T17:59:13.356Z,5.73
2017-08-13T18:01:39.651Z,6.47
2017-08-13T18:04:05.874Z,5.37
2017-08-13T18:06:32.072Z,8.83
2017-08-13T18:08:58.273Z,7.70
2017-08-13T18:11:24.516Z,8.63
2017-08-13T18:13:51.492Z,7.53
2017-08-13T18:16:17.710Z,6.97
2017-08-13T18:18:43.941Z,6.80
2017-08-13T18:21:10.133Z,6.20
2017-08-13T18:23:36.352Z,8.70
2017-08-13T18:26:02.605Z,7.00
2017-08-13T18:28:29.551Z,7.00
2017-08-13T18:30:56.479Z,7.53
2017-08-13T18:33:22.633Z,7.43
2017-08-13T18:35:49.964Z,8.73
2017-08-13T18:38:16.144Z,6.60
2017-08-13T18:40:42.339Z,8.00
2017-08-13T18:43:09.342Z,7.37
2017-08-13T18:45:35.530Z,7.67
2017-08-13T18:48:01.753Z,13.43
2017-08-13T18:50:28.058Z,10.13
2017-08-13T18:52:55.074Z,10.53
2017-08-13T18:55:21.325Z,7.60
2017-08-13T18:57:48.844Z,7.57
2017-08-13T19:00:15.936Z,7.83
2017-08-13T19:02:43.440Z,7.83
2017-08-13T19:05:10.079Z,10.00
2017-08-13T19:07:36.716Z,8.33
2017-08-13T19:10:03.254Z,9.13
2017-08-13T19:12:30.305Z,11.10
2017-08-13T19:15:05.937Z,12.10
2017-08-13T19:17:32.710Z,9.87
2017-08-13T19:19:59.347Z,9.17
2017-08-13T19:22:26.379Z,8.53
2017-08-13T19:24:54.679Z,15.77
2017-08-13T19:27:21.304Z,13.10
2017-08-13T19:29:47.965Z,15.27
2017-08-13T19:32:15.289Z,7.33
2017-08-13T19:34:41.890Z,11.83
2017-08-13T19:37:09.085Z,10.33
2017-08-13T19:39:35.828Z,8.67
2017-08-13T19:42:03.278Z,9.03
2017-08-13T19:44:29.916Z,9.40
2017-08-13T19:46:56.494Z,9.80
2017-08-13T19:49:24.442Z,7.37
2017-08-13T19:51:52.421Z,9.13
2017-08-13T19:54:19.063Z,7.97
2017-08-13T19:56:46.496Z,8.93
2017-08-13T19:59:13.127Z,10.80
2017-08-13T20:01:40.586Z,9.23
2017-08-13T20:04:08.052Z,11.00
2017-08-13T20:06:34.725Z,14.50
2017-08-13T20:09:01.429Z,11.53
2017-08-13T20:11:28.072Z,9.00
2017-08-13T20:13:54.703Z,13.47
2017-08-13T20:16:22.520Z,9.50
2017-08-13T20:18:49.263Z,11.30
2017-08-13T20:21:16.313Z,9.17
2017-08-13T20:23:42.488Z,8.77
2017-08-13T20:26:08.710Z,8.80
2017-08-13T20:28:34.960Z,8.50
2017-08-13T20:31:01.180Z,11.47
2017-08-13T20:33:27.478Z,9.50
2017-08-13T20:36:09.365Z,10.00
2017-08-13T20:38:36.308Z,9.20
2017-08-13T20:41:03.443Z,7.97
2017-08-13T20:43:29.646Z,9.80
2017-08-13T20:45:55.810Z,7.93
2017-08-13T20:48:22.858Z,9.10
2017-08-13T20:50:49.435Z,9.33
2017-08-13T20:53:15.638Z,9.03
2017-08-13T20:55:42.591Z,10.80
2017-08-13T20:58:09.643Z,8.50
2017-08-13T21:00:35.890Z,9.50
2017-08-13T21:03:02.086Z,12.00
2017-08-13T21:05:28.983Z,9.47
2017-08-13T21:07:55.173Z,9.50
2017-08-13T21:10:22.095Z,9.53
2017-08-13T21:12:48.309Z,9.40
2017-08-13T21:15:14.560Z,9.30
2017-08-13T21:17:41.464Z,8.00
2017-08-13T21:20:07.666Z,9.17
2017-08-13T21:22:33.852Z,10.47
2017-08-13T21:25:00.063Z,9.30
2017-08-13T21:27:26.291Z,11.30
2017-08-13T21:29:52.482Z,8.93
2017-08-13T21:32:18.658Z,9.10
2017-08-13T21:34:44.843Z,9.33
2017-08-13T21:37:11.030Z,8.93
2017-08-13T21:39:37.963Z,8.83
2017-08-13T21:42:04.188Z,11.37
2017-08-13T21:44:30.401Z,8.10
2017-08-13T21:46:56.582Z,9.50
2017-08-13T21:49:22.790Z,7.50
2017-08-13T21:51:49.683Z,8.53
2017-08-13T21:54:15.861Z,7.80
2017-08-13T21:56:42.049Z,8.40
2017-08-13T21:59:08.232Z,9.23
2017-08-13T22:01:35.153Z,10.00
2017-08-13T22:04:01.367Z,7.87
2017-08-13T22:06:27.566Z,8.80
2017-08-13T22:08:53.738Z,7.67
2017-08-13T22:11:19.924Z,15.53
2017-08-13T22:13:46.127Z,21.47
2017-08-13T22:16:12.317Z,8.70
2017-08-13T22:18:38.470Z,9.67
2017-08-13T22:21:05.423Z,9.40
2017-08-13T22:23:33.032Z,9.23
2017-08-13T22:25:59.213Z,8.70
2017-08-13T22:28:25.402Z,10.70
2017-08-13T22:30:51.647Z,7.93
2017-08-13T22:33:17.822Z,8.40
2017-08-13T22:35:44.983Z,10.37
2017-08-13T22:38:11.147Z,10.47
2017-08-13T22:40:37.346Z,8.80
2017-08-13T22:43:04.483Z,8.20
2017-08-13T22:45:30.650Z,8.67
2017-08-13T22:47:57.221Z,12.43
2017-08-13T22:50:24.226Z,10.50
2017-08-13T22:52:50.426Z,11.67
2017-08-13T22:55:16.582Z,10.00
2017-08-13T22:57:42.753Z,10.43
2017-08-13T23:00:09.677Z,10.20
2017-08-13T23:02:35.894Z,8.17
2017-08-13T23:05:02.067Z,8.73
2017-08-13T23:07:28.254Z,9.07
2017-08-13T23:09:54.491Z,10.77
2017-08-13T23:12:20.694Z,9.17
2017-08-13T23:14:46.882Z,15.50
2017-08-13T23:17:13.045Z,10.50
2017-08-13T23:19:39.267Z,10.20
2017-08-13T23:22:05.474Z,8.90
2017-08-13T23:24:31.626Z,9.00
2017-08-13T23:26:57.815Z,9.70
2017-08-13T23:29:24.053Z,14.77
2017-08-13T23:31:50.241Z,10.90
2017-08-13T23:34:16.405Z,14.10
2017-08-13T23:36:42.546Z,9.63
2017-08-13T23:39:08.755Z,12.00
2017-08-13T23:41:34.973Z,8.83
2017-08-13T23:44:01.130Z,9.90
2017-08-13T23:46:27.322Z,7.40
2017-08-13T23:48:54.195Z,7.63
2017-08-13T23:51:20.412Z,8.30
2017-08-13T23:53:46.571Z,9.07
2017-08-13T23:56:12.733Z,8.43
2017-08-13T23:58:38.890Z,8.23
